sensor_id;sensor_type;location;lat;lon;timestamp;temperature;humidity
74946;HTU21D;63509;45.250;38.102;2023-02-28T00:00:21;11.60;54.96
74946;HTU21D;63509;45.250;38.102;2023-02-28T00:02:48;11.59;54.99
74946;HTU21D;63509;45.250;38.102;2023-02-28T00:05:16;11.57;55.00
74946;HTU21D;63509;45.250;38.102;2023-02-28T00:07:43;11.58;55.04
74946;HTU21D;63509;45.250;38.102;2023-02-28T00:10:11;11.57;55.04
74946;HTU21D;63509;45.250;38.102;2023-02-28T00:12:38;11.55;55.07
74946;HTU21D;63509;45.250;38.102;2023-02-28T00:15:09;11.56;55.03
74946;HTU21D;63509;45.250;38.102;2023-02-28T00:17:36;11.52;55.11
74946;HTU21D;63509;45.250;38.102;2023-02-28T00:20:03;11.53;55.15
74946;HTU21D;63509;45.250;38.102;2023-02-28T00:22:30;11.54;55.15
74946;HTU21D;63509;45.250;38.102;2023-02-28T00:24:56;11.53;55.15
74946;HTU21D;63509;45.250;38.102;2023-02-28T00:27:22;11.54;55.12
74946;HTU21D;63509;45.250;38.102;2023-02-28T00:29:48;11.54;55.10
74946;HTU21D;63509;45.250;38.102;2023-02-28T00:32:14;11.55;55.11
74946;HTU21D;63509;45.250;38.102;2023-02-28T00:34:40;11.58;55.13
74946;HTU21D;63509;45.250;38.102;2023-02-28T00:37:09;11.59;55.10
74946;HTU21D;63509;45.250;38.102;2023-02-28T00:39:38;11.61;55.13
74946;HTU21D;63509;45.250;38.102;2023-02-28T00:42:05;11.66;55.09
74946;HTU21D;63509;45.250;38.102;2023-02-28T00:44:32;11.68;55.07
74946;HTU21D;63509;45.250;38.102;2023-02-28T00:46:58;11.71;55.05
74946;HTU21D;63509;45.250;38.102;2023-02-28T00:49:25;11.73;55.04
74946;HTU21D;63509;45.250;38.102;2023-02-28T00:51:52;11.76;55.02
74946;HTU21D;63509;45.250;38.102;2023-02-28T00:54:19;11.76;55.02
74946;HTU21D;63509;45.250;38.102;2023-02-28T00:56:47;11.79;54.99
74946;HTU21D;63509;45.250;38.102;2023-02-28T00:59:14;11.78;55.00
74946;HTU21D;63509;45.250;38.102;2023-02-28T01:01:41;11.81;55.01
74946;HTU21D;63509;45.250;38.102;2023-02-28T01:04:07;11.79;55.03
74946;HTU21D;63509;45.250;38.102;2023-02-28T01:06:35;11.79;55.01
74946;HTU21D;63509;45.250;38.102;2023-02-28T01:09:03;11.82;55.00
74946;HTU21D;63509;45.250;38.102;2023-02-28T01:11:29;11.81;55.02
74946;HTU21D;63509;45.250;38.102;2023-02-28T01:13:55;11.82;55.00
74946;HTU21D;63509;45.250;38.102;2023-02-28T01:16:21;11.82;55.02
74946;HTU21D;63509;45.250;38.102;2023-02-28T01:18:47;11.82;54.99
74946;HTU21D;63509;45.250;38.102;2023-02-28T01:21:15;11.82;55.00
74946;HTU21D;63509;45.250;38.102;2023-02-28T01:23:43;11.82;55.02
74946;HTU21D;63509;45.250;38.102;2023-02-28T01:26:15;11.81;55.01
74946;HTU21D;63509;45.250;38.102;2023-02-28T01:28:42;11.81;55.06
74946;HTU21D;63509;45.250;38.102;2023-02-28T01:31:09;11.83;55.07
74946;HTU21D;63509;45.250;38.102;2023-02-28T01:33:37;11.81;55.06
74946;HTU21D;63509;45.250;38.102;2023-02-28T01:36:11;11.82;55.05
74946;HTU21D;63509;45.250;38.102;2023-02-28T01:38:37;11.81;55.04
74946;HTU21D;63509;45.250;38.102;2023-02-28T01:41:04;11.82;55.04
74946;HTU21D;63509;45.250;38.102;2023-02-28T01:43:39;11.82;55.03
74946;HTU21D;63509;45.250;38.102;2023-02-28T01:46:17;11.79;55.04
74946;HTU21D;63509;45.250;38.102;2023-02-28T01:49:22;11.78;54.97
74946;HTU21D;63509;45.250;38.102;2023-02-28T01:51:54;11.77;55.04
74946;HTU21D;63509;45.250;38.102;2023-02-28T01:54:31;11.76;55.04
74946;HTU21D;63509;45.250;38.102;2023-02-28T01:57:15;11.75;55.02
74946;HTU21D;63509;45.250;38.102;2023-02-28T01:59:47;11.74;55.07
74946;HTU21D;63509;45.250;38.102;2023-02-28T02:02:18;11.74;55.10
74946;HTU21D;63509;45.250;38.102;2023-02-28T02:05:10;11.73;55.04
74946;HTU21D;63509;45.250;38.102;2023-02-28T02:07:39;11.71;55.11
74946;HTU21D;63509;45.250;38.102;2023-02-28T02:10:15;11.70;54.99
74946;HTU21D;63509;45.250;38.102;2023-02-28T02:13:08;11.67;55.04
74946;HTU21D;63509;45.250;38.102;2023-02-28T02:15:44;11.62;55.15
74946;HTU21D;63509;45.250;38.102;2023-02-28T02:18:26;11.60;55.19
74946;HTU21D;63509;45.250;38.102;2023-02-28T02:35:06;11.45;55.21
74946;HTU21D;63509;45.250;38.102;2023-02-28T02:37:50;11.43;55.17
74946;HTU21D;63509;45.250;38.102;2023-02-28T02:40:23;11.36;55.25
74946;HTU21D;63509;45.250;38.102;2023-02-28T02:43:22;11.33;55.33
74946;HTU21D;63509;45.250;38.102;2023-02-28T02:46:02;11.31;55.42
74946;HTU21D;63509;45.250;38.102;2023-02-28T02:48:33;11.30;55.47
74946;HTU21D;63509;45.250;38.102;2023-02-28T02:51:04;11.30;55.53
74946;HTU21D;63509;45.250;38.102;2023-02-28T02:53:55;11.30;55.48
74946;HTU21D;63509;45.250;38.102;2023-02-28T02:56:27;11.30;55.52
74946;HTU21D;63509;45.250;38.102;2023-02-28T02:58:58;11.29;55.55
74946;HTU21D;63509;45.250;38.102;2023-02-28T03:01:26;11.26;55.56
74946;HTU21D;63509;45.250;38.102;2023-02-28T03:04:00;11.27;55.57
74946;HTU21D;63509;45.250;38.102;2023-02-28T03:06:27;11.26;55.61
74946;HTU21D;63509;45.250;38.102;2023-02-28T03:08:53;11.26;55.60
74946;HTU21D;63509;45.250;38.102;2023-02-28T03:11:21;11.27;55.66
74946;HTU21D;63509;45.250;38.102;2023-02-28T03:16:54;11.29;55.63
74946;HTU21D;63509;45.250;38.102;2023-02-28T03:28:00;11.30;55.85
74946;HTU21D;63509;45.250;38.102;2023-02-28T03:33:17;11.31;55.89
74946;HTU21D;63509;45.250;38.102;2023-02-28T03:36:15;11.31;55.80
74946;HTU21D;63509;45.250;38.102;2023-02-28T03:38:49;11.30;55.83
74946;HTU21D;63509;45.250;38.102;2023-02-28T03:41:22;11.29;55.94
74946;HTU21D;63509;45.250;38.102;2023-02-28T03:43:56;11.26;55.97
74946;HTU21D;63509;45.250;38.102;2023-02-28T03:46:27;11.24;56.10
74946;HTU21D;63509;45.250;38.102;2023-02-28T03:49:16;11.20;56.00
74946;HTU21D;63509;45.250;38.102;2023-02-28T03:51:44;11.17;56.16
74946;HTU21D;63509;45.250;38.102;2023-02-28T03:54:12;11.14;55.97
74946;HTU21D;63509;45.250;38.102;2023-02-28T03:56:56;11.11;56.06
74946;HTU21D;63509;45.250;38.102;2023-02-28T03:59:45;11.05;56.23
74946;HTU21D;63509;45.250;38.102;2023-02-28T04:02:09;11.05;56.36
74946;HTU21D;63509;45.250;38.102;2023-02-28T04:04:36;11.03;56.39
74946;HTU21D;63509;45.250;38.102;2023-02-28T04:07:08;10.99;56.45
74946;HTU21D;63509;45.250;38.102;2023-02-28T04:09:34;10.98;57.61
74946;HTU21D;63509;45.250;38.102;2023-02-28T04:12:00;11.03;58.06
74946;HTU21D;63509;45.250;38.102;2023-02-28T04:14:26;11.14;58.63
74946;HTU21D;63509;45.250;38.102;2023-02-28T04:16:52;11.29;59.03
74946;HTU21D;63509;45.250;38.102;2023-02-28T04:19:19;11.39;59.39
74946;HTU21D;63509;45.250;38.102;2023-02-28T04:21:47;11.51;59.56
74946;HTU21D;63509;45.250;38.102;2023-02-28T04:24:22;11.60;59.41
74946;HTU21D;63509;45.250;38.102;2023-02-28T04:26:50;11.67;59.29
74946;HTU21D;63509;45.250;38.102;2023-02-28T04:29:23;11.72;58.82
74946;HTU21D;63509;45.250;38.102;2023-02-28T04:31:50;11.77;59.38
74946;HTU21D;63509;45.250;38.102;2023-02-28T04:34:16;11.83;59.56
74946;HTU21D;63509;45.250;38.102;2023-02-28T04:36:42;11.89;59.72
74946;HTU21D;63509;45.250;38.102;2023-02-28T04:39:08;11.94;59.59
74946;HTU21D;63509;45.250;38.102;2023-02-28T04:41:35;11.99;59.66
74946;HTU21D;63509;45.250;38.102;2023-02-28T04:44:01;12.01;59.79
74946;HTU21D;63509;45.250;38.102;2023-02-28T04:46:27;12.06;59.74
74946;HTU21D;63509;45.250;38.102;2023-02-28T04:48:53;12.10;59.87
74946;HTU21D;63509;45.250;38.102;2023-02-28T04:51:20;12.15;59.93
74946;HTU21D;63509;45.250;38.102;2023-02-28T04:53:46;12.18;60.09
74946;HTU21D;63509;45.250;38.102;2023-02-28T04:56:14;12.22;60.15
74946;HTU21D;63509;45.250;38.102;2023-02-28T04:58:40;12.27;60.18
74946;HTU21D;63509;45.250;38.102;2023-02-28T05:01:23;12.34;60.03
74946;HTU21D;63509;45.250;38.102;2023-02-28T05:03:51;12.40;60.25
74946;HTU21D;63509;45.250;38.102;2023-02-28T05:06:18;12.46;60.24
74946;HTU21D;63509;45.250;38.102;2023-02-28T05:08:44;12.52;60.35
74946;HTU21D;63509;45.250;38.102;2023-02-28T05:11:22;12.59;60.15
74946;HTU21D;63509;45.250;38.102;2023-02-28T05:13:49;12.66;60.29
74946;HTU21D;63509;45.250;38.102;2023-02-28T05:16:15;12.74;60.17
74946;HTU21D;63509;45.250;38.102;2023-02-28T05:18:42;12.79;60.06
74946;HTU21D;63509;45.250;38.102;2023-02-28T05:21:30;12.86;59.85
74946;HTU21D;63509;45.250;38.102;2023-02-28T05:23:58;12.84;60.02
74946;HTU21D;63509;45.250;38.102;2023-02-28T05:26:25;12.89;60.12
74946;HTU21D;63509;45.250;38.102;2023-02-28T05:28:52;12.92;60.25
74946;HTU21D;63509;45.250;38.102;2023-02-28T05:31:18;12.96;60.22
74946;HTU21D;63509;45.250;38.102;2023-02-28T05:33:44;13.03;60.20
74946;HTU21D;63509;45.250;38.102;2023-02-28T05:36:10;13.08;60.12
74946;HTU21D;63509;45.250;38.102;2023-02-28T05:38:36;13.14;60.36
74946;HTU21D;63509;45.250;38.102;2023-02-28T05:41:10;13.22;60.18
74946;HTU21D;63509;45.250;38.102;2023-02-28T05:43:37;13.31;60.17
74946;HTU21D;63509;45.250;38.102;2023-02-28T05:46:07;13.37;60.12
74946;HTU21D;63509;45.250;38.102;2023-02-28T05:48:36;13.45;60.02
74946;HTU21D;63509;45.250;38.102;2023-02-28T05:51:03;13.52;60.28
74946;HTU21D;63509;45.250;38.102;2023-02-28T05:53:30;13.58;60.44
74946;HTU21D;63509;45.250;38.102;2023-02-28T05:55:56;13.63;60.37
74946;HTU21D;63509;45.250;38.102;2023-02-28T05:58:23;13.64;60.25
74946;HTU21D;63509;45.250;38.102;2023-02-28T06:00:51;13.62;60.36
74946;HTU21D;63509;45.250;38.102;2023-02-28T06:03:17;13.61;60.54
74946;HTU21D;63509;45.250;38.102;2023-02-28T06:05:43;13.60;60.48
74946;HTU21D;63509;45.250;38.102;2023-02-28T06:08:09;13.58;60.57
74946;HTU21D;63509;45.250;38.102;2023-02-28T06:10:35;13.56;60.55
74946;HTU21D;63509;45.250;38.102;2023-02-28T06:13:02;13.51;60.49
74946;HTU21D;63509;45.250;38.102;2023-02-28T06:15:28;13.44;60.56
74946;HTU21D;63509;45.250;38.102;2023-02-28T06:17:55;13.37;60.64
74946;HTU21D;63509;45.250;38.102;2023-02-28T06:20:23;13.30;60.62
74946;HTU21D;63509;45.250;38.102;2023-02-28T06:22:49;13.20;60.92
74946;HTU21D;63509;45.250;38.102;2023-02-28T06:25:20;13.14;60.99
74946;HTU21D;63509;45.250;38.102;2023-02-28T06:27:46;13.09;61.15
74946;HTU21D;63509;45.250;38.102;2023-02-28T06:30:14;13.08;61.23
74946;HTU21D;63509;45.250;38.102;2023-02-28T06:32:40;13.09;61.28
74946;HTU21D;63509;45.250;38.102;2023-02-28T06:35:07;13.10;61.29
74946;HTU21D;63509;45.250;38.102;2023-02-28T06:37:33;13.09;61.23
74946;HTU21D;63509;45.250;38.102;2023-02-28T06:39:59;13.09;61.29
74946;HTU21D;63509;45.250;38.102;2023-02-28T06:42:25;13.10;61.29
74946;HTU21D;63509;45.250;38.102;2023-02-28T06:44:55;13.14;61.34
74946;HTU21D;63509;45.250;38.102;2023-02-28T06:47:21;13.18;61.40
74946;HTU21D;63509;45.250;38.102;2023-02-28T06:49:47;13.20;61.31
74946;HTU21D;63509;45.250;38.102;2023-02-28T06:52:14;13.21;61.17
74946;HTU21D;63509;45.250;38.102;2023-02-28T06:54:40;13.19;61.32
74946;HTU21D;63509;45.250;38.102;2023-02-28T06:57:06;13.19;61.19
74946;HTU21D;63509;45.250;38.102;2023-02-28T06:59:33;13.18;61.28
74946;HTU21D;63509;45.250;38.102;2023-02-28T07:02:01;13.18;61.28
74946;HTU21D;63509;45.250;38.102;2023-02-28T07:04:28;13.20;61.43
74946;HTU21D;63509;45.250;38.102;2023-02-28T07:06:54;13.27;61.46
74946;HTU21D;63509;45.250;38.102;2023-02-28T07:09:22;13.37;61.33
74946;HTU21D;63509;45.250;38.102;2023-02-28T07:11:49;13.38;61.18
74946;HTU21D;63509;45.250;38.102;2023-02-28T07:14:15;13.36;61.03
74946;HTU21D;63509;45.250;38.102;2023-02-28T07:16:41;13.31;61.24
74946;HTU21D;63509;45.250;38.102;2023-02-28T07:19:07;13.31;61.31
74946;HTU21D;63509;45.250;38.102;2023-02-28T07:21:33;13.27;61.29
74946;HTU21D;63509;45.250;38.102;2023-02-28T07:23:59;13.23;61.32
74946;HTU21D;63509;45.250;38.102;2023-02-28T07:26:24;13.16;61.39
74946;HTU21D;63509;45.250;38.102;2023-02-28T07:28:50;13.12;61.56
74946;HTU21D;63509;45.250;38.102;2023-02-28T07:31:17;13.07;61.75
74946;HTU21D;63509;45.250;38.102;2023-02-28T07:33:43;13.09;61.84
74946;HTU21D;63509;45.250;38.102;2023-02-28T07:36:12;13.09;61.86
74946;HTU21D;63509;45.250;38.102;2023-02-28T07:38:42;13.10;61.96
74946;HTU21D;63509;45.250;38.102;2023-02-28T07:41:09;13.10;61.88
74946;HTU21D;63509;45.250;38.102;2023-02-28T07:43:35;13.09;61.86
74946;HTU21D;63509;45.250;38.102;2023-02-28T07:46:04;13.06;62.08
74946;HTU21D;63509;45.250;38.102;2023-02-28T07:48:31;13.06;62.17
74946;HTU21D;63509;45.250;38.102;2023-02-28T07:50:58;13.07;62.17
74946;HTU21D;63509;45.250;38.102;2023-02-28T07:53:25;13.06;62.23
74946;HTU21D;63509;45.250;38.102;2023-02-28T07:55:54;13.07;62.30
74946;HTU21D;63509;45.250;38.102;2023-02-28T07:58:20;13.08;62.43
74946;HTU21D;63509;45.250;38.102;2023-02-28T08:00:46;13.12;62.38
74946;HTU21D;63509;45.250;38.102;2023-02-28T08:03:12;13.19;62.54
74946;HTU21D;63509;45.250;38.102;2023-02-28T08:05:39;13.26;62.57
74946;HTU21D;63509;45.250;38.102;2023-02-28T08:08:06;13.34;62.52
74946;HTU21D;63509;45.250;38.102;2023-02-28T08:10:33;13.46;62.47
74946;HTU21D;63509;45.250;38.102;2023-02-28T08:12:59;13.54;62.43
74946;HTU21D;63509;45.250;38.102;2023-02-28T08:15:25;13.61;62.21
74946;HTU21D;63509;45.250;38.102;2023-02-28T08:17:52;13.64;62.21
74946;HTU21D;63509;45.250;38.102;2023-02-28T08:20:18;13.67;62.20
74946;HTU21D;63509;45.250;38.102;2023-02-28T08:22:44;13.68;62.06
74946;HTU21D;63509;45.250;38.102;2023-02-28T08:25:10;13.67;62.18
74946;HTU21D;63509;45.250;38.102;2023-02-28T08:27:37;13.69;62.21
74946;HTU21D;63509;45.250;38.102;2023-02-28T08:30:04;13.71;62.22
74946;HTU21D;63509;45.250;38.102;2023-02-28T08:32:30;13.70;62.16
74946;HTU21D;63509;45.250;38.102;2023-02-28T08:34:57;13.74;62.12
74946;HTU21D;63509;45.250;38.102;2023-02-28T08:37:23;13.76;62.20
74946;HTU21D;63509;45.250;38.102;2023-02-28T08:39:50;13.75;62.07
74946;HTU21D;63509;45.250;38.102;2023-02-28T08:42:16;13.75;62.03
74946;HTU21D;63509;45.250;38.102;2023-02-28T08:44:42;13.74;62.08
74946;HTU21D;63509;45.250;38.102;2023-02-28T08:47:08;13.76;62.14
74946;HTU21D;63509;45.250;38.102;2023-02-28T08:49:34;13.79;62.22
74946;HTU21D;63509;45.250;38.102;2023-02-28T08:52:00;13.84;62.11
74946;HTU21D;63509;45.250;38.102;2023-02-28T08:54:26;13.86;62.12
74946;HTU21D;63509;45.250;38.102;2023-02-28T08:56:54;13.90;62.19
74946;HTU21D;63509;45.250;38.102;2023-02-28T08:59:20;13.94;62.18
74946;HTU21D;63509;45.250;38.102;2023-02-28T09:01:46;13.99;62.18
74946;HTU21D;63509;45.250;38.102;2023-02-28T09:04:12;14.07;62.08
74946;HTU21D;63509;45.250;38.102;2023-02-28T09:06:39;14.11;62.07
74946;HTU21D;63509;45.250;38.102;2023-02-28T09:09:05;14.19;62.05
74946;HTU21D;63509;45.250;38.102;2023-02-28T09:11:34;14.23;61.86
74946;HTU21D;63509;45.250;38.102;2023-02-28T09:14:01;14.23;61.76
74946;HTU21D;63509;45.250;38.102;2023-02-28T09:16:30;14.23;61.77
74946;HTU21D;63509;45.250;38.102;2023-02-28T09:18:56;14.25;61.83
74946;HTU21D;63509;45.250;38.102;2023-02-28T09:21:23;14.32;61.84
74946;HTU21D;63509;45.250;38.102;2023-02-28T09:23:50;14.37;61.71
74946;HTU21D;63509;45.250;38.102;2023-02-28T09:26:22;14.42;61.53
74946;HTU21D;63509;45.250;38.102;2023-02-28T09:28:50;14.43;61.51
74946;HTU21D;63509;45.250;38.102;2023-02-28T09:31:24;14.44;61.37
74946;HTU21D;63509;45.250;38.102;2023-02-28T09:33:53;14.40;61.36
74946;HTU21D;63509;45.250;38.102;2023-02-28T09:36:20;14.37;61.41
74946;HTU21D;63509;45.250;38.102;2023-02-28T09:38:46;14.32;61.44
74946;HTU21D;63509;45.250;38.102;2023-02-28T09:43:50;14.24;61.54
74946;HTU21D;63509;45.250;38.102;2023-02-28T09:46:32;14.23;61.54
74946;HTU21D;63509;45.250;38.102;2023-02-28T09:49:12;14.21;61.69
74946;HTU21D;63509;45.250;38.102;2023-02-28T09:54:22;14.28;61.74
74946;HTU21D;63509;45.250;38.102;2023-02-28T09:56:59;14.33;61.69
74946;HTU21D;63509;45.250;38.102;2023-02-28T09:59:42;14.37;61.60
74946;HTU21D;63509;45.250;38.102;2023-02-28T10:04:59;14.41;61.60
74946;HTU21D;63509;45.250;38.102;2023-02-28T10:12:46;14.50;61.41
74946;HTU21D;63509;45.250;38.102;2023-02-28T10:15:17;14.54;61.33
74946;HTU21D;63509;45.250;38.102;2023-02-28T10:17:47;14.60;61.38
74946;HTU21D;63509;45.250;38.102;2023-02-28T10:20:22;14.74;61.25
74946;HTU21D;63509;45.250;38.102;2023-02-28T10:23:28;14.89;60.99
74946;HTU21D;63509;45.250;38.102;2023-02-28T10:26:01;14.89;60.94
74946;HTU21D;63509;45.250;38.102;2023-02-28T10:28:29;15.00;60.76
74946;HTU21D;63509;45.250;38.102;2023-02-28T10:30:56;15.08;60.46
74946;HTU21D;63509;45.250;38.102;2023-02-28T10:33:31;15.10;60.41
74946;HTU21D;63509;45.250;38.102;2023-02-28T10:35:58;15.14;60.36
74946;HTU21D;63509;45.250;38.102;2023-02-28T10:38:33;15.17;60.18
74946;HTU21D;63509;45.250;38.102;2023-02-28T10:41:12;15.22;60.15
74946;HTU21D;63509;45.250;38.102;2023-02-28T10:43:41;15.19;59.99
74946;HTU21D;63509;45.250;38.102;2023-02-28T10:48:45;15.12;59.83
74946;HTU21D;63509;45.250;38.102;2023-02-28T10:51:19;15.03;59.78
74946;HTU21D;63509;45.250;38.102;2023-02-28T10:56:19;14.78;59.75
74946;HTU21D;63509;45.250;38.102;2023-02-28T10:59:02;14.64;59.80
74946;HTU21D;63509;45.250;38.102;2023-02-28T11:04:33;14.34;59.99
74946;HTU21D;63509;45.250;38.102;2023-02-28T11:07:05;14.18;60.25
74946;HTU21D;63509;45.250;38.102;2023-02-28T11:09:34;14.03;60.38
74946;HTU21D;63509;45.250;38.102;2023-02-28T11:12:02;13.91;60.56
74946;HTU21D;63509;45.250;38.102;2023-02-28T11:14:39;13.78;60.54
74946;HTU21D;63509;45.250;38.102;2023-02-28T11:17:24;13.62;60.67
74946;HTU21D;63509;45.250;38.102;2023-02-28T11:20:18;13.50;61.10
74946;HTU21D;63509;45.250;38.102;2023-02-28T11:22:44;13.43;61.22
74946;HTU21D;63509;45.250;38.102;2023-02-28T11:25:26;13.41;61.19
74946;HTU21D;63509;45.250;38.102;2023-02-28T11:27:55;13.39;61.37
74946;HTU21D;63509;45.250;38.102;2023-02-28T11:30:25;13.44;61.39
74946;HTU21D;63509;45.250;38.102;2023-02-28T11:32:51;13.46;61.40
74946;HTU21D;63509;45.250;38.102;2023-02-28T11:35:23;13.51;61.47
74946;HTU21D;63509;45.250;38.102;2023-02-28T11:37:50;13.53;61.45
74946;HTU21D;63509;45.250;38.102;2023-02-28T11:40:30;13.56;61.25
74946;HTU21D;63509;45.250;38.102;2023-02-28T11:43:22;13.59;61.26
74946;HTU21D;63509;45.250;38.102;2023-02-28T11:46:23;13.61;61.14
74946;HTU21D;63509;45.250;38.102;2023-02-28T11:51:32;13.62;61.09
74946;HTU21D;63509;45.250;38.102;2023-02-28T11:56:48;13.65;60.95
74946;HTU21D;63509;45.250;38.102;2023-02-28T12:05:18;13.69;60.53
74946;HTU21D;63509;45.250;38.102;2023-02-28T12:08:08;13.58;60.37
74946;HTU21D;63509;45.250;38.102;2023-02-28T12:13:24;13.29;60.15
74946;HTU21D;63509;45.250;38.102;2023-02-28T12:16:16;13.12;60.15
74946;HTU21D;63509;45.250;38.102;2023-02-28T12:19:04;12.90;60.25
74946;HTU21D;63509;45.250;38.102;2023-02-28T12:24:26;12.59;60.41
74946;HTU21D;63509;45.250;38.102;2023-02-28T12:26:56;12.45;60.38
74946;HTU21D;63509;45.250;38.102;2023-02-28T12:29:26;12.31;60.44
74946;HTU21D;63509;45.250;38.102;2023-02-28T12:34:41;12.05;60.58
74946;HTU21D;63509;45.250;38.102;2023-02-28T12:37:17;11.88;60.68
74946;HTU21D;63509;45.250;38.102;2023-02-28T12:39:51;11.75;60.84
74946;HTU21D;63509;45.250;38.102;2023-02-28T12:42:32;11.64;60.89
74946;HTU21D;63509;45.250;38.102;2023-02-28T12:45:03;11.48;61.05
74946;HTU21D;63509;45.250;38.102;2023-02-28T12:47:30;11.34;61.22
74946;HTU21D;63509;45.250;38.102;2023-02-28T12:50:03;11.27;61.30
74946;HTU21D;63509;45.250;38.102;2023-02-28T12:52:53;11.17;61.46
74946;HTU21D;63509;45.250;38.102;2023-02-28T13:09:15;10.81;61.90
74946;HTU21D;63509;45.250;38.102;2023-02-28T13:11:52;10.80;61.80
74946;HTU21D;63509;45.250;38.102;2023-02-28T13:14:35;10.74;61.79
74946;HTU21D;63509;45.250;38.102;2023-02-28T13:17:11;10.66;61.89
74946;HTU21D;63509;45.250;38.102;2023-02-28T13:19:41;10.60;62.04
74946;HTU21D;63509;45.250;38.102;2023-02-28T13:24:57;10.44;62.15
74946;HTU21D;63509;45.250;38.102;2023-02-28T13:27:24;10.37;62.22
74946;HTU21D;63509;45.250;38.102;2023-02-28T13:29:57;10.30;62.31
74946;HTU21D;63509;45.250;38.102;2023-02-28T13:32:29;10.23;62.36
74946;HTU21D;63509;45.250;38.102;2023-02-28T13:47:33;10.00;63.08
74946;HTU21D;63509;45.250;38.102;2023-02-28T13:50:27;10.01;62.70
74946;HTU21D;63509;45.250;38.102;2023-02-28T13:59:38;9.76;62.65
74946;HTU21D;63509;45.250;38.102;2023-02-28T14:07:09;9.47;63.21
74946;HTU21D;63509;45.250;38.102;2023-02-28T14:09:46;9.45;63.16
74946;HTU21D;63509;45.250;38.102;2023-02-28T14:15:44;9.30;62.98
74946;HTU21D;63509;45.250;38.102;2023-02-28T14:29:21;8.85;63.30
74946;HTU21D;63509;45.250;38.102;2023-02-28T14:34:55;8.63;63.55
74946;HTU21D;63509;45.250;38.102;2023-02-28T14:37:33;8.56;63.59
74946;HTU21D;63509;45.250;38.102;2023-02-28T14:40:00;8.49;63.76
74946;HTU21D;63509;45.250;38.102;2023-02-28T14:42:35;8.51;64.18
74946;HTU21D;63509;45.250;38.102;2023-02-28T14:45:04;8.58;64.04
74946;HTU21D;63509;45.250;38.102;2023-02-28T14:47:34;8.60;63.91
74946;HTU21D;63509;45.250;38.102;2023-02-28T14:50:03;8.56;63.88
74946;HTU21D;63509;45.250;38.102;2023-02-28T14:52:31;8.51;63.92
74946;HTU21D;63509;45.250;38.102;2023-02-28T14:55:01;8.47;63.91
74946;HTU21D;63509;45.250;38.102;2023-02-28T14:57:39;8.43;63.93
74946;HTU21D;63509;45.250;38.102;2023-02-28T15:00:22;8.39;63.87
74946;HTU21D;63509;45.250;38.102;2023-02-28T15:02:49;8.34;63.95
74946;HTU21D;63509;45.250;38.102;2023-02-28T15:07:46;8.27;64.14
74946;HTU21D;63509;45.250;38.102;2023-02-28T15:10:24;8.26;64.06
74946;HTU21D;63509;45.250;38.102;2023-02-28T15:13:10;8.23;64.03
74946;HTU21D;63509;45.250;38.102;2023-02-28T15:21:13;8.20;64.12
74946;HTU21D;63509;45.250;38.102;2023-02-28T15:23:43;8.17;64.21
74946;HTU21D;63509;45.250;38.102;2023-02-28T15:26:21;8.14;64.18
74946;HTU21D;63509;45.250;38.102;2023-02-28T15:29:00;8.14;64.23
74946;HTU21D;63509;45.250;38.102;2023-02-28T15:31:29;8.11;64.31
74946;HTU21D;63509;45.250;38.102;2023-02-28T15:34:04;8.11;64.33
74946;HTU21D;63509;45.250;38.102;2023-02-28T15:36:33;8.09;64.38
74946;HTU21D;63509;45.250;38.102;2023-02-28T15:39:18;8.05;64.45
74946;HTU21D;63509;45.250;38.102;2023-02-28T15:41:45;8.02;64.48
74946;HTU21D;63509;45.250;38.102;2023-02-28T15:44:16;8.01;64.52
74946;HTU21D;63509;45.250;38.102;2023-02-28T15:46:58;8.00;64.44
74946;HTU21D;63509;45.250;38.102;2023-02-28T15:49:27;7.97;64.59
74946;HTU21D;63509;45.250;38.102;2023-02-28T15:51:56;7.96;64.63
74946;HTU21D;63509;45.250;38.102;2023-02-28T15:54:33;7.94;64.61
74946;HTU21D;63509;45.250;38.102;2023-02-28T15:57:06;7.93;64.72
74946;HTU21D;63509;45.250;38.102;2023-02-28T15:59:36;7.92;64.80
74946;HTU21D;63509;45.250;38.102;2023-02-28T16:02:18;7.91;64.80
74946;HTU21D;63509;45.250;38.102;2023-02-28T16:07:38;7.87;64.93
74946;HTU21D;63509;45.250;38.102;2023-02-28T16:10:06;7.86;64.96
74946;HTU21D;63509;45.250;38.102;2023-02-28T16:12:35;7.86;65.03
74946;HTU21D;63509;45.250;38.102;2023-02-28T16:15:07;7.83;65.04
74946;HTU21D;63509;45.250;38.102;2023-02-28T16:17:38;7.81;65.13
74946;HTU21D;63509;45.250;38.102;2023-02-28T16:20:20;7.77;65.10
74946;HTU21D;63509;45.250;38.102;2023-02-28T16:22:46;7.74;65.28
74946;HTU21D;63509;45.250;38.102;2023-02-28T16:25:13;7.73;65.37
74946;HTU21D;63509;45.250;38.102;2023-02-28T16:27:40;7.73;65.45
74946;HTU21D;63509;45.250;38.102;2023-02-28T16:30:15;7.71;65.50
74946;HTU21D;63509;45.250;38.102;2023-02-28T16:32:42;7.71;65.50
74946;HTU21D;63509;45.250;38.102;2023-02-28T16:35:10;7.71;65.53
74946;HTU21D;63509;45.250;38.102;2023-02-28T16:37:37;7.68;65.61
74946;HTU21D;63509;45.250;38.102;2023-02-28T16:40:03;7.65;65.67
74946;HTU21D;63509;45.250;38.102;2023-02-28T16:42:31;7.67;65.70
74946;HTU21D;63509;45.250;38.102;2023-02-28T16:44:57;7.65;65.74
74946;HTU21D;63509;45.250;38.102;2023-02-28T18:32:31;7.00;64.30
74946;HTU21D;63509;45.250;38.102;2023-02-28T18:34:58;7.02;64.55
74946;HTU21D;63509;45.250;38.102;2023-02-28T18:37:24;7.07;64.69
74946;HTU21D;63509;45.250;38.102;2023-02-28T18:39:50;7.11;64.77
74946;HTU21D;63509;45.250;38.102;2023-02-28T18:42:16;7.14;64.85
74946;HTU21D;63509;45.250;38.102;2023-02-28T18:44:42;7.17;64.90
74946;HTU21D;63509;45.250;38.102;2023-02-28T18:47:08;7.19;64.95
74946;HTU21D;63509;45.250;38.102;2023-02-28T18:49:34;7.24;64.96
74946;HTU21D;63509;45.250;38.102;2023-02-28T18:52:01;7.26;64.98
74946;HTU21D;63509;45.250;38.102;2023-02-28T18:54:27;7.28;64.96
74946;HTU21D;63509;45.250;38.102;2023-02-28T18:56:53;7.30;64.93
74946;HTU21D;63509;45.250;38.102;2023-02-28T18:59:21;7.31;64.96
74946;HTU21D;63509;45.250;38.102;2023-02-28T19:01:47;7.33;64.99
74946;HTU21D;63509;45.250;38.102;2023-02-28T19:04:14;7.34;65.02
74946;HTU21D;63509;45.250;38.102;2023-02-28T19:06:40;7.35;65.04
74946;HTU21D;63509;45.250;38.102;2023-02-28T19:09:07;7.34;65.05
74946;HTU21D;63509;45.250;38.102;2023-02-28T19:11:33;7.34;65.07
74946;HTU21D;63509;45.250;38.102;2023-02-28T19:14:00;7.35;65.07
74946;HTU21D;63509;45.250;38.102;2023-02-28T19:16:26;7.33;65.08
74946;HTU21D;63509;45.250;38.102;2023-02-28T19:18:52;7.34;65.10
74946;HTU21D;63509;45.250;38.102;2023-02-28T19:21:21;7.35;65.11
74946;HTU21D;63509;45.250;38.102;2023-02-28T19:23:47;7.34;65.09
74946;HTU21D;63509;45.250;38.102;2023-02-28T19:26:19;7.33;65.13
74946;HTU21D;63509;45.250;38.102;2023-02-28T19:28:46;7.32;65.14